Time;durP1;ratioP1;P1;durP2;ratioP2;P2;SDS_P1;SDS_P2;PMS_P1;PMS_P2;Temp;Humidity;BMP_temperature;BMP_pressure;BME280_temperature;BME280_humidity;BME280_pressure;Samples;Min_cycle;Max_cycle;Signal;HPM_P1;HPM_P2
2022/06/10 00:00:41;;;;;;;62.30;3.80;;;;;;;;;;5093662;28;20457;-74
2022/06/10 00:03:08;;;;;;;60.17;4.03;;;;;;;;;;5093077;28;20470;-74
2022/06/10 00:05:37;;;;;;;60.43;3.47;;;;;;;;;;5093343;28;20446;-74
2022/06/10 00:08:05;;;;;;;62.10;4.17;;;;;;;;;;5092831;28;20931;-74
2022/06/10 00:10:32;;;;;;;61.50;4.80;;;;;;;;;;5093184;28;20466;-74
2022/06/10 00:12:59;;;;;;;61.30;4.10;;;;;;;;;;5092901;28;20473;-74
2022/06/10 00:15:27;;;;;;;59.50;3.20;;;;;;;;;;5093368;28;20453;-74
2022/06/10 00:17:54;;;;;;;62.70;3.50;;;;;;;;;;5092648;28;20476;-74
2022/06/10 00:20:23;;;;;;;59.70;3.70;;;;;;;;;;5092987;28;20930;-74
2022/06/10 00:22:51;;;;;;;59.50;3.43;;;;;;;;;;5092624;28;21002;-74
2022/06/10 00:25:19;;;;;;;60.83;3.70;;;;;;;;;;5092813;28;20482;-74
2022/06/10 00:27:47;;;;;;;59.40;3.70;;;;;;;;;;5092260;28;20478;-74
2022/06/10 00:30:15;;;;;;;60.60;3.53;;;;;;;;;;5092745;28;20460;-73
2022/06/10 00:32:42;;;;;;;60.50;4.10;;;;;;;;;;5093048;28;20466;-74
2022/06/10 00:35:10;;;;;;;60.00;4.03;;;;;;;;;;5092707;28;20448;-74
2022/06/10 00:37:38;;;;;;;59.17;3.50;;;;;;;;;;5091716;28;20485;-73
2022/06/10 00:40:08;;;;;;;60.37;4.00;;;;;;;;;;5092732;28;20567;-74
2022/06/10 00:42:37;;;;;;;62.00;4.53;;;;;;;;;;5092212;28;20841;-74
2022/06/10 00:45:05;;;;;;;59.53;3.53;;;;;;;;;;5092704;28;20447;-74
2022/06/10 00:47:34;;;;;;;60.17;3.53;;;;;;;;;;5091989;28;20434;-74
2022/06/10 00:50:03;;;;;;;59.47;3.57;;;;;;;;;;5092313;28;20493;-74
2022/06/10 00:52:32;;;;;;;60.20;3.73;;;;;;;;;;5092455;28;20915;-74
2022/06/10 00:54:59;;;;;;;59.87;3.83;;;;;;;;;;5092386;28;20458;-74
2022/06/10 00:57:31;;;;;;;60.57;4.03;;;;;;;;;;5091585;28;20489;-74
2022/06/10 01:00:01;;;;;;;59.80;3.73;;;;;;;;;;5092207;28;20457;-74
2022/06/10 01:02:30;;;;;;;59.53;3.83;;;;;;;;;;5092006;28;20474;-74
2022/06/10 01:04:58;;;;;;;59.97;4.47;;;;;;;;;;5092508;28;20507;-74
2022/06/10 01:07:27;;;;;;;61.37;3.87;;;;;;;;;;5091699;28;20496;-74
2022/06/10 01:09:55;;;;;;;59.83;3.50;;;;;;;;;;5092322;28;20441;-74
2022/06/10 01:12:37;;;;;;;60.30;4.00;;;;;;;;;;5092137;28;20466;-74
2022/06/10 01:15:11;;;;;;;59.43;3.40;;;;;;;;;;5079311;28;20533;-75
2022/06/10 01:17:43;;;;;;;60.57;3.73;;;;;;;;;;5091275;28;20482;-75
2022/06/10 01:20:16;;;;;;;60.03;5.03;;;;;;;;;;5092030;28;20450;-75
2022/06/10 01:22:58;;;;;;;60.40;3.70;;;;;;;;;;5091873;28;20478;-74
2022/06/10 01:25:44;;;;;;;59.60;3.80;;;;;;;;;;5058416;28;20448;-74
2022/06/10 01:28:17;;;;;;;59.43;3.50;;;;;;;;;;5091332;28;20958;-74
2022/06/10 01:30:52;;;;;;;60.07;3.80;;;;;;;;;;5091386;28;20448;-74
2022/06/10 01:33:28;;;;;;;63.30;3.93;;;;;;;;;;5091769;28;20466;-74
2022/06/10 01:36:06;;;;;;;60.20;4.00;;;;;;;;;;5092001;28;20827;-74
2022/06/10 01:38:38;;;;;;;62.00;4.20;;;;;;;;;;5091087;28;20489;-74
2022/06/10 01:41:09;;;;;;;59.90;3.77;;;;;;;;;;5092066;28;20465;-74
2022/06/10 01:43:40;;;;;;;59.90;3.67;;;;;;;;;;5091750;28;20509;-74
2022/06/10 01:46:11;;;;;;;62.00;4.30;;;;;;;;;;5091902;28;20462;-74
2022/06/10 01:48:41;;;;;;;59.93;3.77;;;;;;;;;;5091418;28;20435;-75
2022/06/10 01:51:11;;;;;;;60.70;4.37;;;;;;;;;;5091735;28;20447;-74
2022/06/10 01:53:42;;;;;;;59.40;3.57;;;;;;;;;;5091601;28;20540;-74
2022/06/10 01:56:12;;;;;;;60.87;3.50;;;;;;;;;;5095166;28;20450;-74
2022/06/10 01:58:41;;;;;;;60.93;4.33;;;;;;;;;;5095357;28;20442;-74
2022/06/10 02:01:12;;;;;;;60.07;3.87;;;;;;;;;;5095610;28;20946;-74
2022/06/10 02:03:40;;;;;;;62.03;3.97;;;;;;;;;;5095626;28;20450;-74
2022/06/10 02:06:09;;;;;;;60.07;3.90;;;;;;;;;;5095503;28;20452;-74
2022/06/10 02:08:39;;;;;;;60.60;4.03;;;;;;;;;;5094854;28;20485;-74
2022/06/10 02:11:08;;;;;;;65.93;3.70;;;;;;;;;;5095560;28;20446;-74
2022/06/10 02:13:38;;;;;;;60.03;3.50;;;;;;;;;;5095374;28;20960;-74
2022/06/10 02:16:06;;;;;;;73.20;3.93;;;;;;;;;;5095578;28;20453;-74
2022/06/10 02:18:37;;;;;;;60.97;3.80;;;;;;;;;;5094526;28;20448;-74
2022/06/10 02:21:07;;;;;;;62.20;4.50;;;;;;;;;;5095277;28;20455;-74
2022/06/10 02:23:37;;;;;;;59.40;3.50;;;;;;;;;;5095419;28;20446;-71
2022/06/10 02:26:05;;;;;;;59.33;3.10;;;;;;;;;;5095350;28;20450;-71
2022/06/10 02:28:34;;;;;;;60.00;3.90;;;;;;;;;;5094449;28;20970;-71
2022/06/10 02:31:04;;;;;;;62.13;4.00;;;;;;;;;;5095096;28;20973;-71
2022/06/10 02:33:32;;;;;;;59.10;3.57;;;;;;;;;;5095063;28;20935;-74
2022/06/10 02:36:06;;;;;;;60.33;4.10;;;;;;;;;;5095096;28;20453;-74
2022/06/10 02:38:39;;;;;;;59.70;3.63;;;;;;;;;;5094287;28;20557;-74
2022/06/10 02:41:10;;;;;;;61.33;4.70;;;;;;;;;;5094958;28;20452;-74
2022/06/10 02:43:42;;;;;;;61.20;4.33;;;;;;;;;;5094913;28;20972;-74
2022/06/10 02:46:12;;;;;;;61.73;3.87;;;;;;;;;;5095174;28;20450;-73
2022/06/10 02:48:43;;;;;;;60.40;4.07;;;;;;;;;;5094097;28;20449;-73
2022/06/10 02:51:13;;;;;;;60.63;4.03;;;;;;;;;;5094820;28;20449;-73
2022/06/10 02:53:40;;;;;;;59.77;3.73;;;;;;;;;;5094720;28;20451;-73
2022/06/10 02:56:15;;;;;;;59.77;3.80;;;;;;;;;;5094636;28;20446;-72
2022/06/10 03:01:32;;;;;;;59.70;4.13;;;;;;;;;;5094761;28;20433;-72
2022/06/10 03:04:07;;;;;;;59.77;3.97;;;;;;;;;;5094488;28;20484;-73
2022/06/10 03:06:39;;;;;;;60.00;3.67;;;;;;;;;;5094137;28;20778;-72
2022/06/10 03:09:10;;;;;;;59.97;3.60;;;;;;;;;;5094109;28;20450;-72
2022/06/10 03:11:40;;;;;;;63.20;3.90;;;;;;;;;;5094541;28;20468;-72
2022/06/10 03:14:10;;;;;;;59.30;3.53;;;;;;;;;;5094565;28;20820;-73
2022/06/10 03:16:45;;;;;;;60.47;4.03;;;;;;;;;;5094158;28;20972;-73
2022/06/10 03:19:17;;;;;;;60.20;3.80;;;;;;;;;;5093445;28;20955;-73
2022/06/10 03:21:52;;;;;;;60.67;4.23;;;;;;;;;;5094277;28;20982;-72
2022/06/10 03:24:24;;;;;;;64.13;4.37;;;;;;;;;;5094117;28;20449;-73
2022/06/10 03:26:53;;;;;;;61.57;3.67;;;;;;;;;;5094219;28;20452;-72
2022/06/10 03:29:25;;;;;;;60.30;4.43;;;;;;;;;;5093526;28;20813;-72
2022/06/10 03:31:55;;;;;;;60.10;4.30;;;;;;;;;;5094115;28;20473;-72
2022/06/10 03:34:24;;;;;;;61.63;4.60;;;;;;;;;;5094064;28;20504;-73
2022/06/10 03:36:54;;;;;;;60.90;3.83;;;;;;;;;;5094127;28;20852;-73
2022/06/10 03:39:22;;;;;;;59.43;3.80;;;;;;;;;;5093105;28;20461;-72
2022/06/10 03:41:56;;;;;;;64.00;4.00;;;;;;;;;;5093715;28;20475;-72
2022/06/10 03:44:24;;;;;;;59.70;3.70;;;;;;;;;;5093778;28;20981;-73
2022/06/10 03:46:52;;;;;;;60.47;4.40;;;;;;;;;;5093895;28;20444;-73
2022/06/10 03:49:21;;;;;;;59.83;3.90;;;;;;;;;;5093138;28;20474;-72
2022/06/10 03:51:48;;;;;;;60.00;4.23;;;;;;;;;;5093670;28;20462;-73
2022/06/10 03:54:18;;;;;;;60.40;4.23;;;;;;;;;;5093615;28;20469;-73
2022/06/10 03:56:45;;;;;;;59.30;3.90;;;;;;;;;;5093308;28;20447;-73
2022/06/10 03:59:12;;;;;;;62.03;4.83;;;;;;;;;;5092937;28;20465;-73
2022/06/10 04:01:39;;;;;;;60.40;4.03;;;;;;;;;;5093426;28;20476;-72
2022/06/10 04:04:07;;;;;;;60.13;3.80;;;;;;;;;;5093450;28;20887;-73
2022/06/10 04:06:34;;;;;;;59.17;3.70;;;;;;;;;;5093261;28;20446;-72
2022/06/10 04:09:01;;;;;;;59.80;3.63;;;;;;;;;;5092351;28;20442;-73
2022/06/10 04:11:29;;;;;;;59.60;3.60;;;;;;;;;;5093329;28;20462;-73
2022/06/10 04:13:56;;;;;;;59.67;3.80;;;;;;;;;;5093526;28;20443;-73
2022/06/10 04:16:24;;;;;;;60.00;4.30;;;;;;;;;;5092991;28;20960;-73
2022/06/10 04:18:51;;;;;;;60.43;4.60;;;;;;;;;;5091712;28;20490;-73
2022/06/10 04:21:18;;;;;;;62.50;4.13;;;;;;;;;;5093003;28;20965;-73
2022/06/10 04:23:45;;;;;;;60.43;4.50;;;;;;;;;;5092746;28;20442;-73
2022/06/10 04:26:12;;;;;;;59.40;3.60;;;;;;;;;;5093115;28;20477;-73
2022/06/10 04:28:41;;;;;;;59.87;4.17;;;;;;;;;;5092275;28;20446;-73
2022/06/10 04:31:08;;;;;;;60.33;3.67;;;;;;;;;;5092780;28;20537;-73
2022/06/10 04:33:35;;;;;;;59.77;3.80;;;;;;;;;;5092731;28;20447;-74
2022/06/10 04:36:03;;;;;;;60.47;3.47;;;;;;;;;;5092881;28;21116;-75
2022/06/10 04:38:30;;;;;;;63.10;3.90;;;;;;;;;;5091899;28;20492;-73
2022/06/10 04:40:58;;;;;;;60.60;4.00;;;;;;;;;;5092864;28;20452;-73
2022/06/10 04:43:26;;;;;;;59.47;3.67;;;;;;;;;;5092481;28;20469;-73
2022/06/10 04:45:56;;;;;;;60.17;3.53;;;;;;;;;;5092984;28;20498;-73
2022/06/10 04:48:24;;;;;;;59.77;3.90;;;;;;;;;;5091929;28;20522;-73
2022/06/10 04:50:51;;;;;;;61.80;4.40;;;;;;;;;;5092378;28;20825;-73
2022/06/10 04:53:18;;;;;;;59.30;3.50;;;;;;;;;;5092684;28;20463;-72
2022/06/10 04:55:45;;;;;;;60.97;4.23;;;;;;;;;;5092630;28;20442;-73
2022/06/10 04:58:12;;;;;;;62.50;4.30;;;;;;;;;;5091651;28;20520;-73
2022/06/10 05:00:42;;;;;;;59.70;3.93;;;;;;;;;;5092376;28;20469;-73
2022/06/10 05:03:11;;;;;;;59.80;4.10;;;;;;;;;;5092241;28;20826;-73
2022/06/10 05:05:38;;;;;;;63.67;3.80;;;;;;;;;;5092288;28;20976;-73
2022/06/10 05:08:06;;;;;;;64.50;4.60;;;;;;;;;;5091674;28;20453;-73
2022/06/10 05:10:33;;;;;;;60.47;4.20;;;;;;;;;;5092297;28;20443;-73
2022/06/10 05:13:00;;;;;;;59.30;3.50;;;;;;;;;;5092109;28;20859;-74
2022/06/10 05:15:28;;;;;;;60.07;4.10;;;;;;;;;;5092206;28;20446;-73
2022/06/10 05:17:56;;;;;;;62.17;4.30;;;;;;;;;;5091183;28;20482;-73
2022/06/10 05:20:27;;;;;;;60.00;3.77;;;;;;;;;;5091935;28;20450;-73
2022/06/10 05:22:54;;;;;;;59.83;4.00;;;;;;;;;;5091940;28;20470;-73
2022/06/10 05:25:21;;;;;;;59.87;4.17;;;;;;;;;;5092159;28;20474;-73
2022/06/10 05:27:48;;;;;;;60.87;4.00;;;;;;;;;;5091391;28;20972;-73
2022/06/10 05:30:18;;;;;;;61.00;6.33;;;;;;;;;;5091854;28;20442;-73
2022/06/10 05:32:45;;;;;;;60.07;3.97;;;;;;;;;;5091645;28;20462;-73
2022/06/10 05:35:13;;;;;;;61.30;4.33;;;;;;;;;;5091820;28;20451;-73
2022/06/10 05:37:42;;;;;;;60.33;4.00;;;;;;;;;;5091014;28;20486;-73
2022/06/10 05:40:10;;;;;;;59.90;4.10;;;;;;;;;;5092000;28;20452;-73
2022/06/10 05:42:37;;;;;;;63.07;4.13;;;;;;;;;;5091849;28;20466;-73
2022/06/10 05:45:04;;;;;;;60.53;3.63;;;;;;;;;;5091630;28;20980;-73
2022/06/10 05:47:33;;;;;;;60.20;4.43;;;;;;;;;;5091472;28;20442;-74
2022/06/10 05:50:01;;;;;;;64.03;4.47;;;;;;;;;;5091992;28;20455;-73
2022/06/10 05:52:30;;;;;;;60.13;4.30;;;;;;;;;;5091810;28;20518;-73
2022/06/10 05:55:00;;;;;;;60.57;3.70;;;;;;;;;;5091839;28;20529;-75
2022/06/10 05:57:27;;;;;;;60.97;3.80;;;;;;;;;;5090904;28;20458;-74
2022/06/10 05:59:55;;;;;;;61.13;3.90;;;;;;;;;;5091898;28;20457;-73
2022/06/10 06:02:23;;;;;;;59.70;4.30;;;;;;;;;;5091590;28;20474;-74
2022/06/10 06:04:50;;;;;;;59.00;3.57;;;;;;;;;;5091811;28;20465;-73
2022/06/10 06:07:19;;;;;;;60.17;3.60;;;;;;;;;;5090939;28;20448;-74
2022/06/10 06:09:46;;;;;;;59.80;3.90;;;;;;;;;;5091674;28;20452;-74
2022/06/10 06:12:15;;;;;;;59.77;3.93;;;;;;;;;;5091504;28;20848;-74
2022/06/10 06:14:42;;;;;;;63.63;3.93;;;;;;;;;;5091519;28;20445;-74
2022/06/10 06:17:09;;;;;;;59.60;4.20;;;;;;;;;;5091310;28;20450;-74
2022/06/10 06:19:36;;;;;;;60.90;3.87;;;;;;;;;;5091607;28;20504;-74
2022/06/10 06:22:04;;;;;;;61.77;3.67;;;;;;;;;;5091461;28;20470;-73
2022/06/10 06:24:31;;;;;;;59.33;3.07;;;;;;;;;;5091257;28;20444;-74
2022/06/10 06:26:58;;;;;;;60.80;3.60;;;;;;;;;;5091557;28;20539;-74
2022/06/10 06:29:27;;;;;;;58.90;3.40;;;;;;;;;;5090866;28;20443;-74
2022/06/10 06:31:54;;;;;;;59.60;3.77;;;;;;;;;;5091310;28;20467;-74
2022/06/10 06:34:21;;;;;;;59.50;3.70;;;;;;;;;;5091378;28;20834;-73
2022/06/10 06:36:49;;;;;;;59.60;3.60;;;;;;;;;;5091395;28;20876;-74
2022/06/10 06:39:18;;;;;;;60.00;3.87;;;;;;;;;;5090417;28;20850;-73
2022/06/10 06:41:45;;;;;;;60.30;3.60;;;;;;;;;;5093789;28;20466;-73
2022/06/10 06:44:12;;;;;;;63.50;3.43;;;;;;;;;;5094975;28;20454;-74
2022/06/10 06:46:42;;;;;;;59.60;4.30;;;;;;;;;;5095123;28;20527;-74
2022/06/10 06:49:11;;;;;;;58.83;3.10;;;;;;;;;;5094205;28;20460;-74
2022/06/10 06:51:39;;;;;;;59.80;3.90;;;;;;;;;;5094753;28;20495;-74
2022/06/10 06:54:07;;;;;;;59.73;3.40;;;;;;;;;;5094868;28;20468;-75
2022/06/10 06:56:34;;;;;;;59.47;3.53;;;;;;;;;;5094668;28;20464;-74
2022/06/10 06:59:01;;;;;;;59.00;3.40;;;;;;;;;;5093956;28;20488;-74
2022/06/10 07:01:29;;;;;;;61.93;3.60;;;;;;;;;;5094495;28;20469;-74
2022/06/10 07:03:57;;;;;;;59.40;3.90;;;;;;;;;;5094756;28;20451;-74
2022/06/10 07:06:24;;;;;;;60.40;4.27;;;;;;;;;;5094459;28;20460;-74
2022/06/10 07:08:51;;;;;;;59.20;2.77;;;;;;;;;;5094100;28;20452;-74
2022/06/10 07:11:19;;;;;;;60.57;3.10;;;;;;;;;;5094512;28;20443;-74
2022/06/10 07:13:46;;;;;;;64.20;3.30;;;;;;;;;;5094702;28;20450;-74
2022/06/10 07:16:13;;;;;;;58.80;2.90;;;;;;;;;;5094337;28;20453;-74
2022/06/10 07:18:40;;;;;;;59.70;3.40;;;;;;;;;;5093343;28;20485;-74
2022/06/10 07:21:09;;;;;;;60.07;3.70;;;;;;;;;;5094417;28;20449;-74
2022/06/10 07:23:36;;;;;;;59.17;3.10;;;;;;;;;;5094501;28;20445;-74
2022/06/10 07:26:04;;;;;;;59.07;3.30;;;;;;;;;;5094033;28;21026;-74
2022/06/10 07:28:31;;;;;;;59.60;3.50;;;;;;;;;;5093482;28;20449;-74
2022/06/10 07:30:59;;;;;;;58.27;2.90;;;;;;;;;;5094206;28;20453;-74
2022/06/10 07:33:26;;;;;;;58.87;2.90;;;;;;;;;;5093858;28;20480;-74
2022/06/10 07:35:53;;;;;;;63.70;3.67;;;;;;;;;;5094166;28;20445;-74
2022/06/10 07:38:22;;;;;;;58.87;2.97;;;;;;;;;;5093028;28;21043;-74
2022/06/10 07:43:35;;;;;;;59.03;3.60;;;;;;;;;;5093967;28;20793;-74
2022/06/10 07:46:03;;;;;;;59.20;3.43;;;;;;;;;;5093985;28;20449;-73
2022/06/10 07:48:31;;;;;;;59.13;3.00;;;;;;;;;;5093091;28;20449;-74
2022/06/10 07:50:58;;;;;;;58.47;3.00;;;;;;;;;;5094002;28;20822;-73
2022/06/10 07:53:29;;;;;;;59.00;3.53;;;;;;;;;;5092478;28;20480;-73
2022/06/10 07:55:56;;;;;;;58.67;3.13;;;;;;;;;;5093997;28;20519;-74
2022/06/10 07:58:24;;;;;;;60.70;3.30;;;;;;;;;;5092753;28;20873;-73
2022/06/10 08:00:52;;;;;;;63.60;3.57;;;;;;;;;;5093700;28;20442;-73
2022/06/10 08:03:19;;;;;;;60.10;3.93;;;;;;;;;;5093354;28;20470;-73
2022/06/10 08:05:46;;;;;;;58.67;3.13;;;;;;;;;;5093514;28;20825;-74
2022/06/10 08:08:15;;;;;;;58.37;2.70;;;;;;;;;;5092814;28;20450;-71
2022/06/10 08:10:43;;;;;;;58.90;3.10;;;;;;;;;;5093298;28;20451;-72
2022/06/10 08:13:10;;;;;;;59.87;3.30;;;;;;;;;;5093022;28;20476;-73
2022/06/10 08:15:38;;;;;;;60.53;3.93;;;;;;;;;;5093438;28;20446;-73
2022/06/10 08:18:06;;;;;;;60.67;4.00;;;;;;;;;;5092407;28;20446;-73
2022/06/10 08:23:21;;;;;;;59.43;3.40;;;;;;;;;;5092896;28;20437;-73
2022/06/10 08:25:50;;;;;;;59.40;3.50;;;;;;;;;;5093111;28;20442;-73
2022/06/10 08:28:17;;;;;;;59.43;3.03;;;;;;;;;;5092153;28;20956;-73
2022/06/10 08:30:45;;;;;;;61.30;3.50;;;;;;;;;;5092991;28;20456;-73
2022/06/10 08:33:12;;;;;;;60.20;3.20;;;;;;;;;;5092571;28;20557;-73
2022/06/10 08:35:40;;;;;;;60.70;3.40;;;;;;;;;;5092868;28;20454;-73
2022/06/10 08:38:11;;;;;;;59.20;3.03;;;;;;;;;;5091806;28;20458;-73
2022/06/10 08:40:42;;;;;;;60.07;3.30;;;;;;;;;;5092910;28;20529;-73
2022/06/10 08:43:15;;;;;;;61.27;3.60;;;;;;;;;;5092600;28;20471;-73
2022/06/10 08:45:46;;;;;;;60.60;3.20;;;;;;;;;;5092654;28;20485;-73
2022/06/10 08:48:16;;;;;;;59.00;3.00;;;;;;;;;;5091841;28;20450;-73
2022/06/10 08:50:51;;;;;;;60.87;3.07;;;;;;;;;;5092826;28;20455;-73
2022/06/10 08:53:23;;;;;;;58.83;3.10;;;;;;;;;;5092850;28;20556;-73
2022/06/10 08:55:53;;;;;;;58.37;3.03;;;;;;;;;;5092534;28;20451;-73
2022/06/10 08:58:23;;;;;;;61.27;3.80;;;;;;;;;;5091682;28;20530;-73
2022/06/10 09:00:52;;;;;;;59.10;3.17;;;;;;;;;;5092386;28;20453;-73
2022/06/10 09:03:21;;;;;;;59.60;3.43;;;;;;;;;;5092102;28;20468;-73
2022/06/10 09:05:49;;;;;;;60.13;3.37;;;;;;;;;;5092377;28;20452;-73
2022/06/10 09:08:17;;;;;;;59.87;2.97;;;;;;;;;;5091807;28;20796;-73
2022/06/10 09:10:47;;;;;;;59.40;3.57;;;;;;;;;;5092063;28;20823;-73
2022/06/10 09:13:26;;;;;;;60.43;3.70;;;;;;;;;;5091901;28;20564;-74
2022/06/10 09:15:56;;;;;;;60.00;2.83;;;;;;;;;;5092345;28;20452;-74
2022/06/10 09:18:26;;;;;;;62.20;2.87;;;;;;;;;;5091537;28;20447;-73
2022/06/10 09:20:56;;;;;;;58.70;2.50;;;;;;;;;;5092260;28;20543;-74
2022/06/10 09:23:28;;;;;;;59.40;3.60;;;;;;;;;;5091895;28;20519;-73
2022/06/10 09:25:57;;;;;;;60.00;2.80;;;;;;;;;;5091977;28;20448;-73
2022/06/10 09:28:26;;;;;;;59.03;2.40;;;;;;;;;;5091760;28;20531;-73
2022/06/10 09:30:56;;;;;;;58.43;2.77;;;;;;;;;;5092099;28;20450;-73
2022/06/10 09:33:27;;;;;;;59.77;2.90;;;;;;;;;;5091757;28;20980;-73
2022/06/10 09:35:59;;;;;;;58.87;2.87;;;;;;;;;;5091962;28;20457;-74
2022/06/10 09:38:33;;;;;;;65.83;3.00;;;;;;;;;;5090977;28;20896;-73
2022/06/10 09:41:06;;;;;;;58.50;2.77;;;;;;;;;;5091956;28;20455;-73
2022/06/10 09:43:51;;;;;;;61.00;3.20;;;;;;;;;;5091747;28;20454;-72
2022/06/10 09:46:31;;;;;;;59.13;2.87;;;;;;;;;;5092059;28;20521;-73
2022/06/10 09:49:05;;;;;;;60.10;3.00;;;;;;;;;;5091062;28;20525;-73
2022/06/10 09:51:38;;;;;;;58.23;3.30;;;;;;;;;;5091839;28;20467;-73
2022/06/10 09:54:16;;;;;;;60.60;2.93;;;;;;;;;;5091673;28;20485;-73
2022/06/10 09:56:55;;;;;;;59.10;2.93;;;;;;;;;;5091770;28;20529;-73
2022/06/10 09:59:27;;;;;;;62.27;2.70;;;;;;;;;;5091294;28;20561;-73
2022/06/10 10:01:59;;;;;;;58.57;2.53;;;;;;;;;;5091671;28;20463;-73
2022/06/10 10:04:41;;;;;;;60.37;3.27;;;;;;;;;;5091698;28;20453;-73
2022/06/10 10:07:12;;;;;;;59.17;2.97;;;;;;;;;;5089064;28;20819;-73
2022/06/10 10:09:43;;;;;;;60.40;2.60;;;;;;;;;;5091520;28;20816;-73
2022/06/10 10:12:15;;;;;;;59.03;2.90;;;;;;;;;;5091677;28;20468;-73
2022/06/10 10:14:46;;;;;;;58.20;2.70;;;;;;;;;;5091876;28;20553;-73
2022/06/10 10:17:28;;;;;;;58.90;2.60;;;;;;;;;;5094111;28;20529;-73
2022/06/10 10:20:02;;;;;;;58.30;2.60;;;;;;;;;;5092961;28;21090;-73
2022/06/10 10:22:41;;;;;;;60.07;2.50;;;;;;;;;;5095424;28;20479;-73
2022/06/10 10:25:12;;;;;;;58.40;2.50;;;;;;;;;;5095441;28;20455;-73
2022/06/10 10:27:40;;;;;;;61.47;2.73;;;;;;;;;;5094617;28;20449;-74
2022/06/10 10:30:15;;;;;;;61.17;2.60;;;;;;;;;;5095288;28;20482;-72
2022/06/10 10:32:44;;;;;;;60.57;2.80;;;;;;;;;;5095539;28;20473;-71
2022/06/10 10:35:19;;;;;;;58.60;2.70;;;;;;;;;;5095111;28;20490;-73
2022/06/10 10:37:52;;;;;;;58.13;2.40;;;;;;;;;;5094276;28;21013;-74
2022/06/10 10:40:21;;;;;;;59.90;2.57;;;;;;;;;;5095090;28;20490;-74
2022/06/10 10:42:51;;;;;;;58.80;2.50;;;;;;;;;;5094701;28;20545;-73
2022/06/10 10:45:20;;;;;;;58.50;2.20;;;;;;;;;;5095069;28;20829;-73
2022/06/10 10:47:50;;;;;;;58.83;2.23;;;;;;;;;;5094482;28;20442;-73
2022/06/10 10:50:21;;;;;;;58.90;2.77;;;;;;;;;;5094983;28;20473;-73
2022/06/10 10:52:49;;;;;;;57.60;2.20;;;;;;;;;;5094658;28;20554;-73
2022/06/10 10:55:23;;;;;;;61.20;2.00;;;;;;;;;;5094669;28;20538;-74
2022/06/10 10:57:55;;;;;;;58.00;2.20;;;;;;;;;;5094008;28;20442;-74
2022/06/10 11:00:31;;;;;;;61.20;2.40;;;;;;;;;;5094788;28;20568;-73
2022/06/10 11:03:01;;;;;;;58.53;2.50;;;;;;;;;;5094620;28;20489;-74
2022/06/10 11:05:32;;;;;;;57.90;2.20;;;;;;;;;;5094614;28;20442;-73
2022/06/10 11:08:12;;;;;;;58.10;2.43;;;;;;;;;;5093833;28;20453;-73
2022/06/10 11:10:41;;;;;;;57.27;2.00;;;;;;;;;;5094436;28;20450;-73
2022/06/10 11:13:09;;;;;;;57.50;2.20;;;;;;;;;;5094243;28;21041;-74
2022/06/10 11:15:36;;;;;;;57.60;2.00;;;;;;;;;;5094451;28;20442;-74
2022/06/10 11:18:03;;;;;;;58.47;2.20;;;;;;;;;;5093693;28;20881;-74
2022/06/10 11:20:33;;;;;;;57.93;2.50;;;;;;;;;;5094104;28;20517;-74
2022/06/10 11:23:18;;;;;;;57.37;2.03;;;;;;;;;;5094486;28;20462;-74
2022/06/10 11:25:46;;;;;;;57.50;2.40;;;;;;;;;;5094353;28;20546;-75
2022/06/10 11:28:21;;;;;;;57.80;2.20;;;;;;;;;;5093301;28;20450;-74
2022/06/10 11:30:49;;;;;;;57.77;2.53;;;;;;;;;;5094076;28;20804;-74
2022/06/10 11:33:19;;;;;;;61.40;2.60;;;;;;;;;;5093859;28;20955;-74
2022/06/10 11:36:01;;;;;;;59.10;2.50;;;;;;;;;;5094140;28;21007;-73
2022/06/10 11:38:29;;;;;;;57.90;2.10;;;;;;;;;;5093205;28;20541;-74
2022/06/10 11:40:57;;;;;;;61.47;2.17;;;;;;;;;;5093713;28;21034;-73
2022/06/10 11:43:26;;;;;;;58.97;2.10;;;;;;;;;;5093665;28;20466;-74
2022/06/10 11:45:56;;;;;;;58.83;2.63;;;;;;;;;;5093709;28;20488;-72
2022/06/10 11:48:30;;;;;;;58.07;2.70;;;;;;;;;;5092978;28;20447;-73
2022/06/10 11:50:59;;;;;;;60.37;2.40;;;;;;;;;;5093923;28;20870;-73
2022/06/10 11:53:37;;;;;;;58.40;2.47;;;;;;;;;;5093751;28;20820;-73
2022/06/10 12:01:49;;;;;;;58.90;2.70;;;;;;;;;;5068673;28;20447;-74
2022/06/10 12:04:19;;;;;;;57.50;2.00;;;;;;;;;;5093233;28;20529;-74
2022/06/10 12:06:48;;;;;;;57.70;2.40;;;;;;;;;;5093757;28;20506;-74
2022/06/10 12:09:21;;;;;;;57.40;2.10;;;;;;;;;;5092625;28;20957;-75
2022/06/10 12:11:52;;;;;;;58.77;2.40;;;;;;;;;;5093164;28;20477;-74
2022/06/10 12:14:22;;;;;;;58.57;3.07;;;;;;;;;;5093471;28;20492;-71
2022/06/10 12:16:51;;;;;;;61.00;2.30;;;;;;;;;;5093188;28;20541;-74
2022/06/10 12:19:21;;;;;;;57.10;2.37;;;;;;;;;;5092437;28;20973;-74
2022/06/10 12:21:48;;;;;;;57.00;2.13;;;;;;;;;;5093274;28;20471;-74
2022/06/10 12:24:18;;;;;;;57.60;2.60;;;;;;;;;;5092838;28;20533;-74
2022/06/10 12:26:49;;;;;;;57.70;2.00;;;;;;;;;;5092895;28;20981;-74
2022/06/10 12:29:19;;;;;;;57.20;2.30;;;;;;;;;;5092261;28;20451;-74
2022/06/10 12:31:52;;;;;;;59.10;2.50;;;;;;;;;;5093089;28;20556;-73
2022/06/10 12:34:23;;;;;;;57.80;2.27;;;;;;;;;;5092813;28;20813;-73
2022/06/10 12:36:52;;;;;;;60.40;2.20;;;;;;;;;;5093341;28;20454;-73
2022/06/10 12:39:23;;;;;;;61.30;2.80;;;;;;;;;;5091499;28;20458;-73
2022/06/10 12:41:52;;;;;;;58.50;2.30;;;;;;;;;;5092890;28;20672;-74
2022/06/10 12:44:21;;;;;;;57.70;2.37;;;;;;;;;;5092758;28;20453;-73
2022/06/10 12:46:50;;;;;;;57.73;2.40;;;;;;;;;;5092652;28;20461;-74
2022/06/10 12:49:20;;;;;;;61.00;1.90;;;;;;;;;;5091827;28;20844;-74
2022/06/10 12:52:00;;;;;;;58.70;2.43;;;;;;;;;;5092539;28;20472;-74
2022/06/10 12:54:31;;;;;;;62.03;2.50;;;;;;;;;;5092849;28;20488;-74
2022/06/10 12:57:17;;;;;;;58.20;2.63;;;;;;;;;;5092563;28;20533;-74
2022/06/10 12:59:44;;;;;;;59.30;2.50;;;;;;;;;;5092512;28;20504;-74
2022/06/10 13:02:26;;;;;;;57.87;2.17;;;;;;;;;;5092339;28;20462;-74
2022/06/10 13:05:00;;;;;;;58.00;2.50;;;;;;;;;;5092516;28;20737;-74
2022/06/10 13:07:30;;;;;;;59.40;2.40;;;;;;;;;;5091539;28;20862;-74
2022/06/10 13:10:21;;;;;;;57.60;2.13;;;;;;;;;;5092260;28;20493;-74
2022/06/10 13:12:50;;;;;;;57.43;2.13;;;;;;;;;;5091755;28;20471;-74
2022/06/10 13:15:24;;;;;;;58.13;2.97;;;;;;;;;;5092357;28;20459;-74
2022/06/10 13:17:53;;;;;;;56.97;1.70;;;;;;;;;;5091546;28;20446;-74
2022/06/10 13:20:22;;;;;;;59.77;2.60;;;;;;;;;;5092224;28;20453;-74
2022/06/10 13:23:10;;;;;;;58.93;2.00;;;;;;;;;;5091991;28;20837;-74
2022/06/10 13:25:39;;;;;;;57.57;2.33;;;;;;;;;;5091881;28;20450;-75
2022/06/10 13:28:13;;;;;;;57.07;2.30;;;;;;;;;;5091507;28;20485;-74
2022/06/10 13:30:42;;;;;;;56.87;1.90;;;;;;;;;;5092054;28;20485;-74
2022/06/10 13:33:11;;;;;;;57.90;2.40;;;;;;;;;;5091816;28;20506;-74
2022/06/10 13:35:40;;;;;;;57.00;1.77;;;;;;;;;;5091884;28;20536;-73
2022/06/10 13:38:11;;;;;;;57.77;2.10;;;;;;;;;;5090998;28;20557;-73
2022/06/10 13:40:41;;;;;;;57.27;2.10;;;;;;;;;;5092029;28;20474;-73
2022/06/10 13:43:14;;;;;;;58.37;2.13;;;;;;;;;;5091784;28;20481;-73
2022/06/10 13:45:42;;;;;;;58.00;2.03;;;;;;;;;;5091996;28;20454;-73
2022/06/10 13:48:15;;;;;;;58.90;2.30;;;;;;;;;;5090999;28;20458;-73
2022/06/10 13:51:09;;;;;;;58.10;2.30;;;;;;;;;;5092876;28;20481;-73
2022/06/10 13:53:38;;;;;;;57.70;2.10;;;;;;;;;;5096008;28;20473;-74
2022/06/10 13:56:08;;;;;;;59.53;2.43;;;;;;;;;;5095894;28;20446;-73
2022/06/10 13:58:36;;;;;;;58.57;2.10;;;;;;;;;;5095215;28;20453;-73
2022/06/10 14:01:07;;;;;;;57.57;2.20;;;;;;;;;;5096081;28;20442;-73
2022/06/10 14:03:40;;;;;;;59.17;2.33;;;;;;;;;;5095873;28;20537;-73
2022/06/10 14:06:14;;;;;;;57.43;2.20;;;;;;;;;;5095913;28;20501;-73
2022/06/10 14:08:46;;;;;;;57.80;2.23;;;;;;;;;;5095047;28;21019;-73
2022/06/10 14:11:15;;;;;;;57.07;1.90;;;;;;;;;;5095172;28;20478;-73
2022/06/10 14:13:49;;;;;;;57.50;2.10;;;;;;;;;;5095694;28;20907;-73
2022/06/10 14:16:16;;;;;;;57.47;2.00;;;;;;;;;;5095749;28;20450;-73
2022/06/10 14:18:45;;;;;;;57.87;2.23;;;;;;;;;;5094884;28;20442;-73
2022/06/10 14:21:13;;;;;;;57.40;2.30;;;;;;;;;;5095489;28;20449;-73
2022/06/10 14:24:00;;;;;;;57.03;2.00;;;;;;;;;;5095200;28;20438;-72
2022/06/10 14:26:29;;;;;;;57.50;2.10;;;;;;;;;;5095721;28;20496;-73
2022/06/10 14:29:12;;;;;;;57.20;2.10;;;;;;;;;;5094714;28;20451;-73
2022/06/10 14:31:42;;;;;;;59.10;2.30;;;;;;;;;;5095012;28;20986;-72
2022/06/10 14:34:15;;;;;;;59.43;2.00;;;;;;;;;;5095102;28;20596;-73
2022/06/10 14:36:49;;;;;;;57.40;2.07;;;;;;;;;;5095264;28;20997;-72
2022/06/10 14:39:18;;;;;;;57.27;2.50;;;;;;;;;;5094468;28;20468;-73
2022/06/10 14:41:54;;;;;;;56.83;1.70;;;;;;;;;;5095091;28;20462;-73
2022/06/10 14:44:23;;;;;;;57.07;1.77;;;;;;;;;;5095028;28;20454;-73
2022/06/10 14:47:05;;;;;;;56.77;1.70;;;;;;;;;;5095112;28;20451;-73
2022/06/10 14:49:38;;;;;;;57.13;1.90;;;;;;;;;;5094801;28;20456;-73
2022/06/10 14:52:08;;;;;;;57.70;2.27;;;;;;;;;;5094856;28;20494;-72
2022/06/10 14:54:36;;;;;;;57.20;2.37;;;;;;;;;;5094702;28;20511;-73
2022/06/10 14:57:07;;;;;;;57.00;1.70;;;;;;;;;;5094791;28;20446;-73
2022/06/10 14:59:34;;;;;;;57.30;2.10;;;;;;;;;;5094452;28;20453;-72
2022/06/10 15:02:02;;;;;;;57.13;2.20;;;;;;;;;;5094392;28;20474;-73